createdAt,value
2022-11-09T00:01:20.826Z,-28.3
2022-11-09T00:03:22.331Z,-28.3
2022-11-09T00:05:23.159Z,-28.1
2022-11-09T00:09:26.047Z,-28.6
2022-11-09T00:11:27.022Z,-28.4
2022-11-09T00:13:28.859Z,-28.3
2022-11-09T00:15:30.510Z,-28.2
2022-11-09T00:17:31.721Z,-28.3
2022-11-09T00:19:32.679Z,-28.3
2022-11-09T00:25:36.693Z,-28.4
2022-11-09T00:27:37.818Z,-28.2
2022-11-09T00:29:39.090Z,-28.4
2022-11-09T00:31:40.406Z,-28.6
2022-11-09T00:33:41.686Z,-28.2
2022-11-09T00:35:42.831Z,-28.1
2022-11-09T00:37:44.422Z,-28.4
2022-11-09T00:38:45.515Z,-28.2
2022-11-09T00:40:46.624Z,-28.3
2022-11-09T00:42:47.789Z,-28
2022-11-09T00:44:49.414Z,-28
2022-11-09T00:46:50.627Z,-28.2
2022-11-09T00:48:51.965Z,-28.3
2022-11-09T00:50:53.737Z,-28.5
2022-11-09T00:52:54.890Z,-28.2
2022-11-09T00:56:58.094Z,-28.3
2022-11-09T00:58:59.628Z,-28.5
2022-11-09T01:01:01.553Z,-28.2
2022-11-09T01:03:02.840Z,-28.2
2022-11-09T01:05:03.817Z,-28.3
2022-11-09T01:07:05.449Z,-28.2
2022-11-09T01:09:06.713Z,-28.3
2022-11-09T01:11:07.757Z,-28.3
2022-11-09T01:13:09.241Z,-28.3
2022-11-09T01:19:13.751Z,-28.4
2022-11-09T01:21:14.903Z,-28.4
2022-11-09T01:23:17.040Z,-28.5
2022-11-09T01:25:18.407Z,-28.5
2022-11-09T01:27:20.237Z,-28.3
2022-11-09T01:29:21.469Z,-28.1
2022-11-09T01:31:23.004Z,-28.3
2022-11-09T01:33:24.828Z,-28.3
2022-11-09T01:35:26.739Z,-28.1
2022-11-09T01:39:29.433Z,-28.4
2022-11-09T01:41:30.408Z,-28.5
2022-11-09T01:43:32.203Z,-28.4
2022-11-09T01:45:33.976Z,-28.3
2022-11-09T01:49:36.468Z,-28.4
2022-11-09T01:51:38.078Z,-28.4
2022-11-09T01:53:39.796Z,-28
2022-11-09T01:55:41.643Z,-28.4
2022-11-09T01:59:44.265Z,-28.5
2022-11-09T02:01:45.496Z,-28.3
2022-11-09T02:03:47.076Z,-28.3
2022-11-09T02:05:48.398Z,-28.4
2022-11-09T02:07:49.624Z,-28.5
2022-11-09T02:09:50.805Z,-28.1
2022-11-09T02:11:52.304Z,-28.4
2022-11-09T02:15:55.118Z,-28.6
2022-11-09T02:17:56.426Z,-28.1
2022-11-09T02:19:58.167Z,-28.3
2022-11-09T02:21:59.213Z,-28.4
2022-11-09T02:28:03.774Z,-28.5
2022-11-09T02:30:05.444Z,-28.5
2022-11-09T02:32:06.648Z,-28.2
2022-11-09T02:34:07.877Z,-28.5
2022-11-09T02:36:09.743Z,-28.6
2022-11-09T02:38:11.474Z,-28.3
2022-11-09T02:40:13.340Z,-28.4
2022-11-09T02:42:20.028Z,-28.3
2022-11-09T02:44:16.273Z,-28.3
2022-11-09T02:46:17.805Z,-28.2
2022-11-09T02:48:19.456Z,-28.3
2022-11-09T02:50:21.134Z,-28.3
2022-11-09T02:52:22.620Z,-28.3
2022-11-09T02:54:23.970Z,-28.4
2022-11-09T02:56:25.489Z,-28.2
2022-11-09T02:58:27.409Z,-28.3
2022-11-09T03:00:28.880Z,-28.4
2022-11-09T03:02:29.933Z,-28.4
2022-11-09T03:04:30.980Z,-28.4
2022-11-09T03:06:32.602Z,-28.4
2022-11-09T03:08:33.744Z,-28.4
2022-11-09T03:10:34.933Z,-28.3
2022-11-09T03:12:35.978Z,-28.5
2022-11-09T03:14:37.693Z,-28.4
2022-11-09T03:16:39.098Z,-28.2
2022-11-09T03:18:40.184Z,-28.5
2022-11-09T03:20:41.179Z,-28.1
2022-11-09T03:22:42.554Z,-28.1
2022-11-09T03:24:44.267Z,-28.2
2022-11-09T03:26:45.800Z,-28.5
2022-11-09T03:28:47.128Z,-28.6
2022-11-09T03:30:48.307Z,-28.3
2022-11-09T03:32:50.820Z,-28.2
2022-11-09T03:34:51.993Z,-28.3
2022-11-09T03:36:53.378Z,-28.3
2022-11-09T03:40:56.189Z,-28.3
2022-11-09T03:42:57.313Z,-28.4
2022-11-09T03:44:59.103Z,-28.4
2022-11-09T03:47:00.755Z,-28.5
2022-11-09T03:49:02.350Z,-28.5
2022-11-09T03:51:03.354Z,-28.4
2022-11-09T03:53:04.828Z,-28.5
2022-11-09T03:55:06.269Z,-28.4
2022-11-09T03:57:07.604Z,-28.2
2022-11-09T03:59:09.241Z,-28.5
2022-11-09T04:03:12.789Z,-28.5
2022-11-09T04:05:13.983Z,-28.4
2022-11-09T04:07:15.608Z,-28.3
2022-11-09T04:09:17.314Z,-28
2022-11-09T04:11:19.183Z,-28.2
2022-11-09T04:13:21.089Z,-28.4
2022-11-09T04:15:22.225Z,-28.3
2022-11-09T04:17:23.681Z,-28.3
2022-11-09T04:19:25.380Z,-28
2022-11-09T04:25:29.293Z,-28.4
2022-11-09T04:27:31.032Z,-28.3
2022-11-09T04:29:32.643Z,-28.5
2022-11-09T04:31:33.725Z,-28.4
2022-11-09T04:33:35.383Z,-28.3
2022-11-09T04:35:37.074Z,-28.2
2022-11-09T04:37:38.266Z,-28.2
2022-11-09T04:39:39.786Z,-28.3
2022-11-09T04:41:41.111Z,-28.2
2022-11-09T04:45:43.721Z,-28.5
2022-11-09T04:49:46.121Z,-28.6
2022-11-09T04:51:47.615Z,-28.6
2022-11-09T04:53:48.950Z,-28.4
2022-11-09T04:55:50.491Z,-28.2
2022-11-09T04:57:51.830Z,-28.3
2022-11-09T04:59:52.964Z,-28.4
2022-11-09T05:01:53.919Z,-28.2
2022-11-09T05:03:55.126Z,-28.5
2022-11-09T05:05:56.968Z,-28.2
2022-11-09T05:07:58.156Z,-28.2
2022-11-09T05:10:00.054Z,-28.2
2022-11-09T05:12:01.424Z,-28.2
2022-11-09T05:14:02.913Z,-28.3
2022-11-09T05:16:04.645Z,-28.4
2022-11-09T05:18:06.456Z,-28.2
2022-11-09T05:20:08.269Z,-28.3
2022-11-09T05:22:09.989Z,-28.3
2022-11-09T05:24:11.240Z,-28.5
2022-11-09T05:26:12.164Z,-28.4
2022-11-09T05:28:13.747Z,-28.2
2022-11-09T05:34:18.225Z,-28.3
2022-11-09T05:36:19.385Z,-28.2
2022-11-09T05:38:20.951Z,-28.2
2022-11-09T05:40:22.375Z,-28.4
2022-11-09T05:42:24.045Z,-28.5
2022-11-09T05:44:25.224Z,-28.4
2022-11-09T05:48:28.579Z,-28.3
2022-11-09T05:50:29.890Z,-28.5
2022-11-09T05:52:31.475Z,-28
2022-11-09T05:54:33.135Z,-28.4
2022-11-09T05:56:34.285Z,-28.6
2022-11-09T05:58:35.331Z,-28.4
2022-11-09T06:00:36.308Z,-28.4
2022-11-09T06:02:37.486Z,-28.2
2022-11-09T06:04:38.701Z,-28.5
2022-11-09T06:06:40.190Z,-28.3
2022-11-09T06:08:41.271Z,-28.3
2022-11-09T06:10:43.057Z,-28.2
2022-11-09T06:12:44.414Z,-28.4
2022-11-09T06:14:46.304Z,-28.4
2022-11-09T06:16:47.828Z,-28
2022-11-09T06:18:49.619Z,-28.3
2022-11-09T06:20:50.691Z,-28.3
2022-11-09T06:22:52.152Z,-28.1
2022-11-09T06:24:53.768Z,-28.5
2022-11-09T06:26:55.030Z,-28.1
2022-11-09T06:28:56.080Z,-28.4
2022-11-09T06:32:59.452Z,-28.5
2022-11-09T06:35:01.027Z,-28.5
2022-11-09T06:37:02.218Z,-28.4
2022-11-09T06:39:03.942Z,-28.3
2022-11-09T06:41:05.564Z,-28.2
2022-11-09T06:43:06.924Z,-28.2
2022-11-09T06:49:10.041Z,-28
2022-11-09T06:51:11.366Z,-28.2
2022-11-09T06:53:12.645Z,-28
2022-11-09T06:55:14.003Z,-28.2
2022-11-09T06:57:14.940Z,-28.2
2022-11-09T06:59:16.123Z,-28.3
2022-11-09T07:03:19.171Z,-28.2
2022-11-09T07:05:20.230Z,-28.5
2022-11-09T07:07:26.549Z,-28.2
2022-11-09T07:09:23.844Z,-28.5
2022-11-09T07:13:26.433Z,-28.5
2022-11-09T07:15:27.613Z,-28.5
2022-11-09T07:19:30.742Z,-28
2022-11-09T07:21:32.504Z,-28.4
2022-11-09T07:23:33.566Z,-28.4
2022-11-09T07:26:18.744Z,-28.3
2022-11-09T07:28:19.736Z,-28
2022-11-09T07:30:21.582Z,-28
2022-11-09T07:32:35.371Z,-28.4
2022-11-09T07:34:24.240Z,-28.6
2022-11-09T07:36:25.201Z,-28.3
2022-11-09T07:38:26.606Z,-28.4
2022-11-09T07:40:28.168Z,-28.4
2022-11-09T07:42:29.528Z,-28.4
2022-11-09T07:44:31.060Z,-28.3
2022-11-09T07:46:32.700Z,-28.3
2022-11-09T07:48:34.023Z,-28.3
2022-11-09T07:50:35.358Z,-28.4
2022-11-09T07:52:36.731Z,-28.2
2022-11-09T07:56:38.732Z,-28.2
2022-11-09T07:58:39.939Z,-28.6
2022-11-09T08:00:40.990Z,-28.4
2022-11-09T08:02:42.549Z,-28.2
2022-11-09T08:08:46.481Z,-28.3
2022-11-09T08:10:47.473Z,-28.3
2022-11-09T08:12:49.181Z,-28.4
2022-11-09T08:14:50.683Z,-28.5
2022-11-09T08:16:52.330Z,-28.2
2022-11-09T08:18:54.012Z,-28.3
2022-11-09T08:20:55.661Z,-28.4
2022-11-09T08:23:01.002Z,-28.4
2022-11-09T08:24:58.307Z,-28.6
2022-11-09T08:26:59.429Z,-28.4
2022-11-09T08:29:01.053Z,-28.2
2022-11-09T08:31:02.494Z,-23.6
2022-11-09T08:33:03.976Z,-21.1
2022-11-09T08:35:05.500Z,-22.3
2022-11-09T08:37:06.576Z,-14.4
2022-11-09T08:39:08.203Z,-14.4
2022-11-09T08:41:13.357Z,-22.8
2022-11-09T08:45:12.671Z,-27
2022-11-09T08:47:14.493Z,-27.4
2022-11-09T08:49:15.468Z,-22.8
2022-11-09T08:51:17.292Z,-22.7
2022-11-09T08:53:18.496Z,-25.1
2022-11-09T08:55:19.671Z,-24.2
2022-11-09T08:57:21.512Z,-25.4
2022-11-09T08:59:22.985Z,-26.3
2022-11-09T09:01:23.944Z,-23.1
2022-11-09T09:07:28.579Z,-27.4
2022-11-09T09:09:29.770Z,-27.2
2022-11-09T09:11:31.229Z,-27.9
2022-11-09T09:13:32.259Z,-28.3
2022-11-09T09:15:33.640Z,-28.3
2022-11-09T09:17:35.112Z,-28
2022-11-09T09:21:37.643Z,-24.1
2022-11-09T09:23:38.711Z,-19.7
2022-11-09T09:25:39.643Z,-24.2
2022-11-09T09:27:41.021Z,-25.2
2022-11-09T09:33:46.142Z,-28.2
2022-11-09T09:35:47.099Z,-28.2
2022-11-09T09:37:48.107Z,-28.2
2022-11-09T09:39:49.137Z,-28.2
2022-11-09T09:41:50.272Z,-28.4
2022-11-09T09:43:51.885Z,-28.3
2022-11-09T09:47:55.099Z,-28.3
2022-11-09T09:49:56.625Z,-28.3
2022-11-09T09:51:58.255Z,-28.4
2022-11-09T09:53:59.825Z,-28.1
2022-11-09T09:56:00.948Z,-28.2
2022-11-09T09:58:02.125Z,-28.1
2022-11-09T10:00:03.350Z,-28.5
2022-11-09T10:02:04.546Z,-25.1
2022-11-09T10:04:06.446Z,-11.4
2022-11-09T10:06:07.612Z,-10.2
2022-11-09T10:08:08.768Z,0.1
2022-11-09T10:10:10.616Z,4.69
2022-11-09T10:12:12.191Z,12.6
2022-11-09T10:14:13.448Z,14.4
2022-11-09T10:16:14.654Z,18.6
2022-11-09T10:20:18.103Z,43.6
2022-11-09T10:22:19.687Z,82.3
2022-11-09T10:26:22.520Z,82.3
2022-11-09T10:30:25.705Z,82.3
2022-11-09T10:32:26.679Z,82.8
2022-11-09T10:34:27.874Z,82.4
2022-11-09T10:36:28.982Z,82.5
2022-11-09T10:38:30.261Z,82.3
2022-11-09T10:40:32.366Z,82.2
2022-11-09T10:42:33.784Z,82.1
2022-11-09T10:44:35.563Z,81.8
2022-11-09T10:46:37.359Z,81.4
2022-11-09T10:48:38.669Z,80.9
2022-11-09T10:50:39.620Z,80.6
2022-11-09T10:52:46.105Z,80.19
2022-11-09T10:54:42.655Z,79.5
2022-11-09T10:57:04.813Z,79.6
2022-11-09T10:58:44.861Z,78.8
2022-11-09T11:00:46.420Z,78.5
2022-11-09T11:02:47.943Z,77.9
2022-11-09T11:04:48.934Z,77.19
2022-11-09T11:08:50.987Z,75.8
2022-11-09T11:10:58.578Z,75
2022-11-09T11:12:53.354Z,74.19
2022-11-09T11:14:54.409Z,73.19
2022-11-09T11:16:55.943Z,73.1
2022-11-09T11:18:57.240Z,72.1
2022-11-09T11:20:58.396Z,72.5
2022-11-09T11:23:00.040Z,70.4
2022-11-09T11:25:01.022Z,71.3
2022-11-09T11:29:03.516Z,70
2022-11-09T11:31:04.890Z,69.4
2022-11-09T11:33:05.977Z,68.69
2022-11-09T11:35:08.255Z,65.6
2022-11-09T11:37:10.805Z,63.7
2022-11-09T11:39:12.026Z,62.4
2022-11-09T11:41:13.428Z,61
2022-11-09T11:45:39.311Z,59.2
2022-11-09T11:47:18.441Z,60.2
2022-11-09T11:49:19.836Z,55.9
2022-11-09T11:51:20.790Z,57.4
2022-11-09T11:57:24.789Z,50.7
2022-11-09T11:59:25.776Z,49.1
2022-11-09T12:01:26.728Z,50.9
2022-11-09T12:03:28.199Z,49.6
2022-11-09T12:05:29.777Z,48.4
2022-11-09T12:07:30.693Z,46.8
2022-11-09T12:11:33.498Z,43.6
2022-11-09T12:13:34.417Z,43.1
2022-11-09T12:15:36.075Z,41.1
2022-11-09T12:17:37.122Z,39.59
2022-11-09T12:19:38.583Z,37.8
2022-11-09T12:21:40.347Z,36.59
2022-11-09T12:23:41.507Z,35.59
2022-11-09T12:25:42.534Z,33.59
2022-11-09T12:27:43.863Z,32.8
2022-11-09T12:29:45.619Z,31.2
2022-11-09T12:31:46.568Z,30.5
2022-11-09T12:33:47.643Z,29.5
2022-11-09T12:35:49.407Z,24.6
2022-11-09T12:37:50.715Z,23.7
2022-11-09T12:39:52.170Z,25
2022-11-09T12:41:53.088Z,23.4
2022-11-09T12:43:54.775Z,22.3
2022-11-09T12:45:56.110Z,22.2
2022-11-09T12:47:57.786Z,21.3
2022-11-09T12:49:58.767Z,20.1
2022-11-09T12:51:59.891Z,18
2022-11-09T12:54:00.796Z,17.4
2022-11-09T12:56:02.013Z,15.9
2022-11-09T12:58:03.128Z,19.9
2022-11-09T13:00:04.445Z,19.7
2022-11-09T13:02:06.035Z,20.29
2022-11-09T13:04:07.567Z,18.79
2022-11-09T13:06:08.406Z,16.2
2022-11-09T13:12:15.915Z,18.7
2022-11-09T13:14:13.347Z,-21.8
2022-11-09T13:16:14.673Z,-7.7
2022-11-09T13:18:15.581Z,-5.8
2022-11-09T13:20:33.928Z,-28.4
2022-11-09T13:22:18.975Z,-28.5
2022-11-09T13:26:21.567Z,-28.3
2022-11-09T13:28:22.431Z,-28.2
2022-11-09T13:30:23.898Z,-28.4
2022-11-09T13:32:25.484Z,-28
2022-11-09T13:38:29.567Z,-28.3
2022-11-09T13:40:30.671Z,-28.2
2022-11-09T13:42:31.669Z,-28.2
2022-11-09T13:44:34.339Z,-28.4
2022-11-09T13:46:34.120Z,-28.3
2022-11-09T13:48:34.968Z,-28.3
2022-11-09T13:52:37.388Z,-28.3
2022-11-09T13:54:38.906Z,-28.2
2022-11-09T13:56:40.198Z,-28.5
2022-11-09T13:58:41.483Z,-28.2
2022-11-09T14:00:42.926Z,-28.2
2022-11-09T14:02:43.840Z,-28.4
2022-11-09T14:04:45.336Z,-28.2
2022-11-09T14:06:46.487Z,-28.4
2022-11-09T14:08:47.954Z,-28.4
2022-11-09T14:11:33.481Z,-28.4
2022-11-09T14:13:34.597Z,-28.3
2022-11-09T14:15:36.474Z,-28.1
2022-11-09T14:17:37.594Z,-28.1
2022-11-09T14:19:38.830Z,-28.1
2022-11-09T14:21:39.641Z,-28.4
2022-11-09T14:25:42.035Z,-28.1
2022-11-09T14:27:43.303Z,-28.5
2022-11-09T14:29:44.616Z,-28.2
2022-11-09T14:31:46.337Z,-28.4
2022-11-09T14:33:48.034Z,-28.3
2022-11-09T14:35:49.477Z,-28.3
2022-11-09T14:37:51.310Z,-28.1
2022-11-09T14:39:52.753Z,-28.4
2022-11-09T14:41:54.459Z,-28.3
2022-11-09T14:47:58.509Z,-28.4
2022-11-09T14:49:59.734Z,-28.4
2022-11-09T14:52:01.020Z,-28.4
2022-11-09T14:54:02.010Z,-28.3
2022-11-09T14:56:03.345Z,-28.5
2022-11-09T14:58:04.366Z,-28.3
2022-11-09T15:02:07.033Z,-28.2
2022-11-09T15:04:08.643Z,-28.5
2022-11-09T15:06:09.556Z,-28.4
2022-11-09T15:08:11.440Z,-28.4
2022-11-09T15:14:15.436Z,-28.3
2022-11-09T15:16:16.453Z,-28.3
2022-11-09T15:18:18.346Z,-28.3
2022-11-09T15:20:19.067Z,-28.3
2022-11-09T15:22:20.831Z,-28.2
2022-11-09T15:24:22.667Z,-28.3
2022-11-09T15:26:24.013Z,-28.3
2022-11-09T15:28:25.345Z,-28.3
2022-11-09T15:30:26.507Z,-27.9
2022-11-09T15:32:27.354Z,-27.9
2022-11-09T15:34:28.270Z,-28.5
2022-11-09T15:36:29.247Z,-28.1
2022-11-09T15:38:30.570Z,-28.3
2022-11-09T15:40:31.959Z,-28.2
2022-11-09T15:42:33.593Z,-28.2
2022-11-09T15:44:35.405Z,-28.3
2022-11-09T15:46:36.477Z,-28.3
2022-11-09T15:48:40.013Z,-28.3
2022-11-09T15:50:38.918Z,-28.4
2022-11-09T15:52:40.720Z,-28.3
2022-11-09T15:54:46.518Z,-28.3
2022-11-09T15:56:43.943Z,-28.3
2022-11-09T16:00:47.617Z,-28.4
2022-11-09T16:02:49.351Z,-28.2
2022-11-09T16:04:50.396Z,-28.2
2022-11-09T16:06:52.264Z,-28
2022-11-09T16:12:56.504Z,-28.5
2022-11-09T16:14:57.885Z,-28.4
2022-11-09T16:16:59.403Z,-28.3
2022-11-09T16:19:01.165Z,-28.4
2022-11-09T16:21:02.533Z,-28.4
2022-11-09T16:23:04.180Z,-28.3
2022-11-09T16:25:05.915Z,-28.2
2022-11-09T16:27:12.733Z,-28.3
2022-11-09T16:29:08.431Z,-28
2022-11-09T16:31:09.768Z,-28.1
2022-11-09T16:33:10.782Z,-28.1
2022-11-09T16:35:26.447Z,-28.2
2022-11-09T16:37:13.764Z,-28.5
2022-11-09T16:39:15.029Z,-28.2
2022-11-09T16:41:16.392Z,-28.7
2022-11-09T16:43:17.464Z,-28.4
2022-11-09T16:45:18.947Z,-28.1
2022-11-09T16:49:22.208Z,-28.5
2022-11-09T16:51:23.559Z,-28.4
2022-11-09T16:53:27.065Z,-27.8
2022-11-09T16:55:27.174Z,-28.3
2022-11-09T16:57:28.627Z,-28.4
2022-11-09T16:59:30.497Z,-28.3
2022-11-09T17:01:31.618Z,-28.4
2022-11-09T17:03:32.537Z,-28.5
2022-11-09T17:05:33.895Z,-28.4
2022-11-09T17:11:38.337Z,-28.2
2022-11-09T17:13:39.235Z,-28.5
2022-11-09T17:15:40.178Z,-28.3
2022-11-09T17:17:42.024Z,-28.4
2022-11-09T17:19:42.946Z,-28.2
2022-11-09T17:21:43.970Z,-28.3
2022-11-09T17:25:47.496Z,-28.2
2022-11-09T17:27:48.581Z,-28.3
2022-11-09T17:29:49.679Z,-28.3
2022-11-09T17:31:51.408Z,-28.2
2022-11-09T17:37:56.366Z,-28.4
2022-11-09T17:39:57.785Z,-28.5
2022-11-09T17:41:58.781Z,-28.4
2022-11-09T17:44:00.085Z,-28.4
2022-11-09T17:46:01.886Z,-28.3
2022-11-09T17:48:03.185Z,-28.3
2022-11-09T17:50:04.896Z,-28.2
2022-11-09T17:52:06.197Z,-28.4
2022-11-09T17:54:07.188Z,-28.4
2022-11-09T17:56:08.679Z,-28
2022-11-09T17:58:09.820Z,-28
2022-11-09T18:00:11.681Z,-28.6
2022-11-09T18:02:12.656Z,-28.3
2022-11-09T18:04:13.868Z,-28.4
2022-11-09T18:06:15.160Z,-28.3
2022-11-09T18:08:16.801Z,-28.3
2022-11-09T18:10:18.066Z,-28.3
2022-11-09T18:12:19.698Z,-28.4
2022-11-09T18:14:20.742Z,-28.4
2022-11-09T18:16:22.507Z,-28.3
2022-11-09T18:18:24.393Z,-28
2022-11-09T18:20:25.639Z,-28.3
2022-11-09T18:24:28.671Z,-28.5
2022-11-09T18:26:29.632Z,-28.4
2022-11-09T18:28:31.013Z,-28.2
2022-11-09T18:30:32.732Z,-28.4
2022-11-09T18:32:34.603Z,-28.5
2022-11-09T18:34:36.063Z,-28.1
2022-11-09T18:36:37.003Z,-28.5
2022-11-09T18:40:40.366Z,-28.2
2022-11-09T18:42:41.532Z,-28.6
2022-11-09T18:44:42.714Z,-28.3
2022-11-09T18:46:44.041Z,-28.4
2022-11-09T18:48:45.755Z,-28.3
2022-11-09T18:50:54.805Z,-28.3
2022-11-09T18:52:48.213Z,-28.2
2022-11-09T18:56:50.849Z,-28.3
2022-11-09T18:58:52.747Z,-28.2
2022-11-09T19:00:54.573Z,-28
2022-11-09T19:02:55.872Z,-28.3
2022-11-09T19:06:59.065Z,-28.4
2022-11-09T19:08:59.934Z,-28
2022-11-09T19:13:03.236Z,-28.3
2022-11-09T19:15:04.371Z,-28.4
2022-11-09T19:17:05.321Z,-28.3
2022-11-09T19:19:06.409Z,-28.4
2022-11-09T19:23:09.314Z,-28.6
2022-11-09T19:25:11.215Z,-28.4
2022-11-09T19:27:12.915Z,-28.4
2022-11-09T19:29:14.433Z,-28.2
2022-11-09T19:31:15.676Z,-28.4
2022-11-09T19:33:16.923Z,-28.4
2022-11-09T19:35:21.891Z,-28.3
2022-11-09T19:37:19.279Z,-28.4
2022-11-09T19:39:20.390Z,-28.5
2022-11-09T19:41:22.207Z,-28.3
2022-11-09T19:43:23.876Z,-28.1
2022-11-09T19:45:24.618Z,-28.3
2022-11-09T19:47:25.485Z,-28.3
2022-11-09T19:49:26.510Z,-28.4
2022-11-09T19:51:27.585Z,-28.2
2022-11-09T19:55:31.093Z,-28.3
2022-11-09T19:57:32.908Z,-28.3
2022-11-09T19:59:34.500Z,-28.3
2022-11-09T20:01:36.066Z,-28.1
2022-11-09T20:07:39.264Z,-28.4
2022-11-09T20:09:40.656Z,-28.3
2022-11-09T20:11:41.794Z,-28.5
2022-11-09T20:13:43.020Z,-28.2
2022-11-09T20:15:44.465Z,-28
2022-11-09T20:17:45.636Z,-28.1
2022-11-09T20:19:46.758Z,-28
2022-11-09T20:21:48.803Z,-28.1
2022-11-09T20:23:50.210Z,-28.3
2022-11-09T20:25:51.423Z,-28.2
2022-11-09T20:27:52.900Z,-28.5
2022-11-09T20:29:54.375Z,-28.3
2022-11-09T20:31:55.472Z,-28.4
2022-11-09T20:33:56.985Z,-28.1
2022-11-09T20:35:58.537Z,-28.4
2022-11-09T20:37:59.558Z,-28.5
2022-11-09T20:40:00.753Z,-28.2
2022-11-09T20:44:03.577Z,-28
2022-11-09T20:46:05.250Z,-28.2
2022-11-09T20:48:19.226Z,-28.5
2022-11-09T20:50:07.815Z,-28.3
2022-11-09T20:54:11.164Z,-28.2
2022-11-09T20:56:12.202Z,-28.3
2022-11-09T21:00:58.603Z,-28.3
2022-11-09T21:03:00.402Z,-28.5
2022-11-09T21:05:01.859Z,-28.2
2022-11-09T21:07:03.410Z,-28.4
2022-11-09T21:09:05.049Z,-28.3
2022-11-09T21:11:06.811Z,-28.4
2022-11-09T21:15:09.012Z,-28.3
2022-11-09T21:17:10.501Z,-28.4
2022-11-09T21:19:11.443Z,-28.3
2022-11-09T21:21:12.960Z,-28.4
2022-11-09T21:27:17.456Z,-28.3
2022-11-09T21:29:18.535Z,-28.3
2022-11-09T21:31:20.298Z,-28.5
2022-11-09T21:33:21.641Z,-28.5
2022-11-09T21:35:23.393Z,-28.3
2022-11-09T21:37:25.318Z,-28.2
2022-11-09T21:39:26.226Z,-28.2
2022-11-09T21:41:27.528Z,-28.4
2022-11-09T21:43:29.374Z,-28.4
2022-11-09T21:45:30.344Z,-28.6
2022-11-09T21:47:31.807Z,-28.4
2022-11-09T21:49:33.204Z,-28.4
2022-11-09T21:51:34.554Z,-28.5
2022-11-09T21:53:35.545Z,-28.2
2022-11-09T21:55:36.724Z,-28.2
2022-11-09T21:57:38.605Z,-28.2
2022-11-09T21:59:39.686Z,-28.1
2022-11-09T22:01:41.329Z,-28.3
2022-11-09T22:03:42.352Z,-28.3
2022-11-09T22:05:43.767Z,-28.3
2022-11-09T22:07:44.780Z,-28.4
2022-11-09T22:10:08.669Z,-28.2
2022-11-09T22:11:46.992Z,-28.3
2022-11-09T22:13:48.053Z,-28.5
2022-11-09T22:15:49.943Z,-28.4
2022-11-09T22:17:51.348Z,-28.2
2022-11-09T22:19:52.635Z,-28.3
2022-11-09T22:21:54.487Z,-28.3
2022-11-09T22:25:57.106Z,-28.2
2022-11-09T22:27:58.352Z,-28.5
2022-11-09T22:30:00.158Z,-28.4
2022-11-09T22:32:01.599Z,-28.2
2022-11-09T22:34:03.207Z,-28.3
2022-11-09T22:36:04.379Z,-28.4
2022-11-09T22:40:06.884Z,-28.2
2022-11-09T22:42:08.476Z,-28.2
2022-11-09T22:44:09.520Z,-28.4
2022-11-09T22:46:11.406Z,-28.4
2022-11-09T22:48:13.115Z,-28.6
2022-11-09T22:50:14.292Z,-28.1
2022-11-09T22:52:15.678Z,-28.4
2022-11-09T22:54:16.739Z,-28.4
2022-11-09T22:56:17.902Z,-28.3
2022-11-09T22:58:19.647Z,-28.2
2022-11-09T23:02:22.235Z,-28.3
2022-11-09T23:04:23.859Z,-28.5
2022-11-09T23:06:25.150Z,-28
2022-11-09T23:08:26.081Z,-28.4
2022-11-09T23:12:28.066Z,-28.4
2022-11-09T23:14:29.702Z,-28.4
2022-11-09T23:16:31.115Z,-28.4
2022-11-09T23:18:32.094Z,-28.6
2022-11-09T23:22:34.360Z,-28.4
2022-11-09T23:24:36.227Z,-28.4
2022-11-09T23:26:37.391Z,-28.3
2022-11-09T23:28:38.564Z,-28.4
2022-11-09T23:32:42.159Z,-28.5
2022-11-09T23:34:43.286Z,-28.6
2022-11-09T23:38:45.952Z,-28.5
2022-11-09T23:40:47.149Z,-28.7
2022-11-09T23:42:48.131Z,-28.7
2022-11-09T23:44:49.797Z,-28.2
2022-11-09T23:50:53.923Z,-28.7
2022-11-09T23:52:55.657Z,-28.3
2022-11-09T23:54:56.874Z,-28.4
2022-11-09T23:56:58.075Z,-28.6
2022-11-09T23:58:59.490Z,-28.5
